createdAt,value
2022-10-13T00:02:28.075Z,13.67
2022-10-13T00:07:30.439Z,14.12
2022-10-13T00:12:35.984Z,13.94
2022-10-13T00:17:41.903Z,14.75
2022-10-13T00:22:44.306Z,14.14
2022-10-13T00:27:46.686Z,14.73
2022-10-13T00:32:49.106Z,14.74
2022-10-13T00:37:53.381Z,14.83
2022-10-13T00:42:55.731Z,14.56
2022-10-13T00:48:01.597Z,14.50
2022-10-13T00:53:05.886Z,14.78
2022-10-13T00:58:12.560Z,14.11
2022-10-13T01:03:15.311Z,14.46
2022-10-13T01:08:19.967Z,14.47
2022-10-13T01:13:32.655Z,14.35
2022-10-13T01:19:19.848Z,14.47
2022-10-13T01:24:56.309Z,14.10
2022-10-13T01:30:20.931Z,13.50
2022-10-13T01:35:38.456Z,13.05
2022-10-13T01:41:05.215Z,13.25
2022-10-13T01:46:12.386Z,13.23
2022-10-13T01:51:18.922Z,13.85
2022-10-13T01:56:22.866Z,14.40
2022-10-13T02:01:43.528Z,13.70
2022-10-13T02:07:00.165Z,13.47
2022-10-13T02:12:08.549Z,13.40
2022-10-13T02:17:11.515Z,13.98
2022-10-13T02:22:17.879Z,13.89
2022-10-13T02:27:21.571Z,14.06
2022-10-13T02:32:24.220Z,13.58
2022-10-13T02:37:28.634Z,13.46
2022-10-13T02:42:30.973Z,13.43
2022-10-13T02:47:36.975Z,13.44
2022-10-13T02:52:39.612Z,13.31
2022-10-13T02:57:42.008Z,13.73
2022-10-13T03:02:44.703Z,14.26
2022-10-13T03:07:47.126Z,14.26
2022-10-13T03:12:49.897Z,14.20
2022-10-13T03:17:52.488Z,14.13
2022-10-13T03:22:54.936Z,14.15
2022-10-13T03:27:57.291Z,14.32
2022-10-13T03:32:59.620Z,14.74
2022-10-13T03:38:02.246Z,15.24
2022-10-13T03:43:05.631Z,14.59
2022-10-13T03:48:07.986Z,14.06
2022-10-13T03:53:11.404Z,14.11
2022-10-13T03:58:15.099Z,14.47
2022-10-13T04:03:18.556Z,15.00
2022-10-13T04:08:21.093Z,14.88
2022-10-13T04:13:23.615Z,13.98
2022-10-13T04:18:27.400Z,13.74
2022-10-13T04:23:30.003Z,13.77
2022-10-13T04:28:37.348Z,14.13
2022-10-13T04:33:39.942Z,14.17
2022-10-13T04:38:43.899Z,14.05
2022-10-13T04:43:50.714Z,13.69
2022-10-13T04:48:54.843Z,13.48
2022-10-13T04:54:01.131Z,13.41
2022-10-13T04:59:05.905Z,13.91
2022-10-13T05:04:09.760Z,13.48
2022-10-13T05:09:16.328Z,13.99
2022-10-13T05:14:18.808Z,14.53
2022-10-13T05:19:21.551Z,14.19
2022-10-13T05:24:36.369Z,14.06
2022-10-13T05:29:39.495Z,14.01
2022-10-13T05:34:41.840Z,14.56
2022-10-13T05:39:48.631Z,14.65
2022-10-13T05:44:52.148Z,14.42
2022-10-13T05:49:55.778Z,14.76
2022-10-13T05:55:02.991Z,15.15
2022-10-13T06:00:15.541Z,15.38
2022-10-13T06:05:20.355Z,15.33
2022-10-13T06:10:26.407Z,15.19
2022-10-13T06:15:28.891Z,15.09
2022-10-13T06:20:32.027Z,15.10
2022-10-13T06:25:34.477Z,15.19
2022-10-13T06:30:38.788Z,14.91
2022-10-13T06:35:41.365Z,15.15
2022-10-13T06:40:47.430Z,15.25
2022-10-13T06:45:49.916Z,14.38
2022-10-13T06:50:52.621Z,14.63
2022-10-13T06:56:02.639Z,14.89
2022-10-13T07:01:06.131Z,14.74
2022-10-13T07:06:08.904Z,14.48
2022-10-13T07:11:16.192Z,13.78
2022-10-13T07:16:23.030Z,13.54
2022-10-13T07:21:25.425Z,13.81
2022-10-13T07:26:27.873Z,13.46
2022-10-13T07:31:30.356Z,13.47
2022-10-13T07:36:33.876Z,13.58
2022-10-13T07:41:37.472Z,13.43
2022-10-13T07:46:39.884Z,13.71
2022-10-13T07:51:42.418Z,14.16
2022-10-13T07:56:45.514Z,14.18
2022-10-13T08:01:48.139Z,13.92
2022-10-13T08:06:50.782Z,14.12
2022-10-13T08:11:58.835Z,13.91
2022-10-13T08:17:02.949Z,14.02
2022-10-13T08:22:09.174Z,14.38
2022-10-13T08:27:18.011Z,14.16
2022-10-13T08:32:22.058Z,14.59
2022-10-13T08:37:25.093Z,15.20
2022-10-13T08:42:27.780Z,15.57
2022-10-13T08:47:52.344Z,15.55
2022-10-13T08:52:58.001Z,15.22
2022-10-13T08:58:02.931Z,15.09
2022-10-13T09:03:23.514Z,15.30
2022-10-13T09:08:30.640Z,15.10
2022-10-13T09:13:33.519Z,14.98
2022-10-13T09:18:37.330Z,15.24
2022-10-13T09:23:42.926Z,15.16
2022-10-13T09:28:45.475Z,15.29
2022-10-13T09:34:01.846Z,15.22
2022-10-13T09:40:32.263Z,15.51
2022-10-13T09:45:34.804Z,15.56
2022-10-13T09:50:37.768Z,15.54
2022-10-13T09:55:40.243Z,15.51
2022-10-13T10:00:45.869Z,15.70
2022-10-13T10:05:51.925Z,16.36
2022-10-13T10:10:55.481Z,16.68
2022-10-13T10:16:12.579Z,16.64
2022-10-13T10:21:23.940Z,16.27
2022-10-13T10:27:06.614Z,16.40
2022-10-13T10:32:09.020Z,16.20
2022-10-13T10:37:34.612Z,16.06
2022-10-13T10:42:43.037Z,15.98
2022-10-13T10:47:50.645Z,16.05
2022-10-13T10:53:06.399Z,16.26
2022-10-13T10:58:24.537Z,16.30
2022-10-13T11:03:57.277Z,16.58
2022-10-13T11:09:00.140Z,16.87
2022-10-13T11:14:24.939Z,17.30
2022-10-13T11:19:33.271Z,17.50
2022-10-13T11:24:41.635Z,17.49
2022-10-13T11:29:46.742Z,16.84
2022-10-13T11:35:05.891Z,16.61
2022-10-13T11:40:17.017Z,16.72
2022-10-13T11:45:47.188Z,17.00
2022-10-13T11:50:58.429Z,17.10
2022-10-13T11:56:03.891Z,17.54
2022-10-13T12:01:12.887Z,17.79
2022-10-13T12:06:33.468Z,17.97
2022-10-13T12:11:39.343Z,17.97
2022-10-13T12:22:18.710Z,17.94
2022-10-13T12:27:22.294Z,18.11
2022-10-13T12:32:31.215Z,18.25
2022-10-13T12:37:34.646Z,18.11
2022-10-13T12:42:39.071Z,18.37
2022-10-13T12:47:44.445Z,18.31
2022-10-13T12:52:47.405Z,18.75
2022-10-13T12:57:51.838Z,18.62
2022-10-13T13:02:58.598Z,18.66
2022-10-13T13:08:01.609Z,18.80
2022-10-13T13:13:15.221Z,18.57
2022-10-13T13:18:36.831Z,18.35
2022-10-13T13:23:39.543Z,18.32
2022-10-13T13:28:48.905Z,18.37
2022-10-13T13:33:51.805Z,18.09
2022-10-13T13:38:55.176Z,18.08
2022-10-13T13:43:58.533Z,18.23
2022-10-13T13:49:02.174Z,18.02
2022-10-13T13:54:05.184Z,17.95
2022-10-13T13:59:07.741Z,17.87
2022-10-13T14:04:10.195Z,17.87
2022-10-13T14:09:12.596Z,18.03
2022-10-13T14:14:15.260Z,18.15
2022-10-13T14:19:17.786Z,18.16
2022-10-13T14:24:21.001Z,18.19
2022-10-13T14:29:23.946Z,18.06
2022-10-13T14:34:26.443Z,18.00
2022-10-13T14:39:28.862Z,17.92
2022-10-13T14:44:31.218Z,17.82
2022-10-13T14:49:33.562Z,18.24
2022-10-13T14:54:36.016Z,18.24
2022-10-13T14:59:39.220Z,18.96
2022-10-13T15:04:41.584Z,19.32
2022-10-13T15:09:53.173Z,19.40
2022-10-13T15:15:06.604Z,19.17
2022-10-13T15:20:09.532Z,19.31
2022-10-13T15:25:11.996Z,18.97
2022-10-13T15:30:14.432Z,18.97
2022-10-13T15:35:17.000Z,19.00
2022-10-13T15:40:19.367Z,18.96
2022-10-13T15:45:21.967Z,18.69
2022-10-13T15:50:27.210Z,18.67
2022-10-13T15:55:29.819Z,18.61
2022-10-13T16:00:32.505Z,18.57
2022-10-13T16:05:34.883Z,18.57
2022-10-13T16:10:41.115Z,18.44
2022-10-13T16:15:43.564Z,18.11
2022-10-13T16:20:45.948Z,17.48
2022-10-13T16:25:48.352Z,17.26
2022-10-13T16:30:50.837Z,17.49
2022-10-13T16:36:03.623Z,17.14
2022-10-13T16:41:07.819Z,16.69
2022-10-13T16:46:15.570Z,16.44
2022-10-13T16:51:23.737Z,16.34
2022-10-13T16:56:27.699Z,16.20
2022-10-13T17:01:30.947Z,16.11
2022-10-13T17:06:33.661Z,16.05
2022-10-13T17:11:37.249Z,15.84
2022-10-13T17:16:40.730Z,15.83
2022-10-13T17:21:44.136Z,16.02
2022-10-13T17:26:48.893Z,16.06
2022-10-13T17:31:51.865Z,15.94
2022-10-13T17:36:59.387Z,15.95
2022-10-13T17:42:01.791Z,16.14
2022-10-13T17:47:04.327Z,16.24
2022-10-13T17:52:06.714Z,16.13
2022-10-13T17:57:09.365Z,16.08
2022-10-13T18:02:12.076Z,16.01
2022-10-13T18:07:14.568Z,16.18
2022-10-13T18:12:17.084Z,16.64
2022-10-13T18:17:19.716Z,16.55
2022-10-13T18:22:22.521Z,16.20
2022-10-13T18:27:26.869Z,16.32
2022-10-13T18:32:29.271Z,15.91
2022-10-13T18:37:31.673Z,15.74
2022-10-13T18:42:34.018Z,15.74
2022-10-13T18:47:36.465Z,16.09
2022-10-13T18:52:40.064Z,16.38
2022-10-13T18:57:42.461Z,16.45
2022-10-13T19:02:44.788Z,16.52
2022-10-13T19:07:47.187Z,16.60
2022-10-13T19:12:49.995Z,16.65
2022-10-13T19:17:55.631Z,16.63
2022-10-13T19:22:58.118Z,16.60
2022-10-13T19:28:00.512Z,16.62
2022-10-13T19:33:03.110Z,16.53
2022-10-13T19:38:05.748Z,16.69
2022-10-13T19:43:08.912Z,16.42
2022-10-13T19:48:11.538Z,16.02
2022-10-13T19:53:14.877Z,15.81
2022-10-13T19:58:17.935Z,15.73
2022-10-13T20:03:20.350Z,15.69
2022-10-13T20:08:25.349Z,15.76
2022-10-13T20:13:27.985Z,16.20
2022-10-13T20:18:37.165Z,16.38
2022-10-13T20:23:40.998Z,16.20
2022-10-13T20:28:45.486Z,15.97
2022-10-13T20:33:49.685Z,15.92
2022-10-13T20:38:54.412Z,16.12
2022-10-13T20:44:00.039Z,16.17
2022-10-13T20:49:10.944Z,15.93
2022-10-13T20:54:15.714Z,15.64
2022-10-13T20:59:18.163Z,15.77
2022-10-13T21:04:20.773Z,15.75
2022-10-13T21:09:23.663Z,15.42
2022-10-13T21:14:26.347Z,15.62
2022-10-13T21:19:29.417Z,15.29
2022-10-13T21:24:32.134Z,14.73
2022-10-13T21:29:34.486Z,14.44
2022-10-13T21:34:36.832Z,14.52
2022-10-13T21:39:39.233Z,15.37
2022-10-13T21:44:41.616Z,15.43
2022-10-13T21:49:43.989Z,15.47
2022-10-13T21:54:48.938Z,15.17
2022-10-13T21:59:51.342Z,14.96
2022-10-13T22:04:54.258Z,15.01
2022-10-13T22:09:56.673Z,15.29
2022-10-13T22:14:59.103Z,15.21
2022-10-13T22:20:01.450Z,14.85
2022-10-13T22:25:04.206Z,14.68
2022-10-13T22:30:08.512Z,14.59
2022-10-13T22:35:10.871Z,14.63
2022-10-13T22:40:13.295Z,14.73
2022-10-13T22:45:15.713Z,15.02
2022-10-13T22:50:19.501Z,15.31
2022-10-13T22:55:22.234Z,15.07
2022-10-13T23:00:24.683Z,14.93
2022-10-13T23:05:27.051Z,15.30
2022-10-13T23:10:29.459Z,15.66
2022-10-13T23:15:32.901Z,15.32
2022-10-13T23:20:38.778Z,15.55
2022-10-13T23:25:41.261Z,15.61
2022-10-13T23:30:43.668Z,15.57
2022-10-13T23:35:53.222Z,15.58
2022-10-13T23:40:56.081Z,15.72
2022-10-13T23:45:58.650Z,15.84
2022-10-13T23:51:07.944Z,15.73
2022-10-13T23:56:11.597Z,15.88
